Buscas algun articulo o informacion? usa nuestro buscador
Síguenos también en:



Facebook


Autor Tema: Tifón UTOR - Categoría 3 - (Pacífico Oeste) Golpeando Filipinas!!!  (Leído 6644 veces)

Desconectado _00_

  • Tornado F1
  • *
  • Mensajes: 1.191
  • Motril.GR.Spain.
Re: Super Tifón UTOR - Categoría 3 - (Pacífico Oeste) Golpeando Filipinas!!!
« Respuesta #30 en: Diciembre 12, 2006, 02:47:47 am »
  DATE/TIME     LAT     LON    CLASSIFICATION        STORM
  11/2033 UTC    14.2N  116.0E    T4.0/4.0             UTOR
  11/1433 UTC    14.1N  117.0E    T3.5/3.5             UTOR
  11/1333 UTC    14.0N  117.1E    T3.5/3.5             UTOR
  11/0833 UTC    13.6N  117.5E    T3.0/4.0             UTOR
  11/0233 UTC    13.3N  118.2E    T3.5/4.5             UTOR
  10/2033 UTC    12.9N  119.2E    T4.0/5.0             UTOR
  10/1433 UTC    12.9N  118.3E    T4.5/5.0             UTAR
  10/0833 UTC    12.6N  120.0E    T4.5/5.5             UTOR
  09/2033 UTC    12.1N  122.0E    T6.0/6.0             UTOR
  09/1433 UTC    11.9N  123.1E    T5.0/5.0             UTOR
  09/0833 UTC    11.5N  124.8E    T4.0/4.0             UTOR
  08/2033 UTC    11.2N  127.0E    T4.0/4.0             UTOR
  08/1433 UTC    11.2N  128.5E    T4.0/4.0             UTOR
  08/0833 UTC    11.0N  129.9E    T3.5/3.5             UTOR






Alter Mater

ermuleto

  • Visitante
Re: Super Tifón UTOR - Categoría 3 - (Pacífico Oeste) Golpeando Filipinas!!!
« Respuesta #31 en: Diciembre 12, 2006, 08:34:06 am »
00 GMT 12/07/06  8.7N 136.8E     30       Tropical Depression
06 GMT 12/07/06  9.6N 135.4E     30       Tropical Depression
12 GMT 12/07/06  9.7N 134.5E     35       Tropical Depression
06 GMT 12/07/06  9.6N 135.4E     30       Tropical Depression
12 GMT 12/07/06  9.7N 134.5E     35       Tropical Depression
18 GMT 12/07/06  10.0N 133.8E     40       Tropical Storm
18 GMT 12/08/06  10.0N 133.8E     40       Tropical Storm
00 GMT 12/08/06  10.6N 132.0E     40       Tropical Storm
06 GMT 12/08/06  11.1N 130.5E     45       Tropical Storm
12 GMT 12/08/06  11.1N 129.1E     60       Tropical Storm
18 GMT 12/08/06  11.1N 127.3E     70       Tropical Storm
18 GMT 12/09/06  11.1N 127.3E     70       Tropical Storm
00 GMT 12/09/06  10.9N 126.4E     75       Category 1
06 GMT 12/09/06  11.2N 125.4E     75       Category 1
12 GMT 12/09/06  11.6N 124.2E     75       Category 1
18 GMT 12/09/06  12.1N 122.8E     85       Category 1
18 GMT 12/10/06  12.1N 122.8E     85       Category 1
00 GMT 12/10/06  12.2N 121.5E    115       Category 3
06 GMT 12/10/06  12.6N 120.3E    115       Category 3
12 GMT 12/10/06  12.9N 119.3E    105       Category 2
18 GMT 12/10/06  13.2N 118.6E    105       Category 2
18 GMT 12/11/06  13.2N 118.6E    105       Category 2
00 GMT 12/11/06  13.3N 118.4E     85       Category 1
06 GMT 12/11/06  13.6N 117.7E     85       Category 1
12 GMT 12/11/06  13.8N 117.0E     90       Category 1
18 GMT 12/11/06  14.1N 116.4E     90       Category 1
18 GMT 12/12/06  14.1N 116.4E     90       Category 1
00 GMT 12/12/06  14.4N 115.7E     85       Category 1

ermuleto

  • Visitante
Re: Super Tifón UTOR - Categoría 3 - (Pacífico Oeste) Golpeando Filipinas!!!
« Respuesta #32 en: Diciembre 12, 2006, 08:48:45 am »
Según el Naval Hurricanes, ahora tendría 90 kts - 954 mb, o sea que volvería a ser un Categoría 2.





ermuleto

  • Visitante
Re: Tifón UTOR - Categoría 3 - (Pacífico Oeste) Golpeando Filipinas!!!
« Respuesta #33 en: Diciembre 12, 2006, 14:00:13 pm »
Tifón UTOR - Categoría 2 -





90 kts - 954 mb














00 GMT 12/07/06  8.7N 136.8E     30       Tropical Depression
06 GMT 12/07/06  9.6N 135.4E     30       Tropical Depression
12 GMT 12/07/06  9.7N 134.5E     35       Tropical Depression
06 GMT 12/07/06  9.6N 135.4E     30       Tropical Depression
12 GMT 12/07/06  9.7N 134.5E     35       Tropical Depression
18 GMT 12/07/06  10.0N 133.8E     40       Tropical Storm
18 GMT 12/08/06  10.0N 133.8E     40       Tropical Storm
00 GMT 12/08/06  10.6N 132.0E     40       Tropical Storm
06 GMT 12/08/06  11.1N 130.5E     45       Tropical Storm
12 GMT 12/08/06  11.1N 129.1E     60       Tropical Storm
18 GMT 12/08/06  11.1N 127.3E     70       Tropical Storm
18 GMT 12/09/06  11.1N 127.3E     70       Tropical Storm
00 GMT 12/09/06  10.9N 126.4E     75       Category 1
06 GMT 12/09/06  11.2N 125.4E     75       Category 1
12 GMT 12/09/06  11.6N 124.2E     75       Category 1
18 GMT 12/09/06  12.1N 122.8E     85       Category 1
18 GMT 12/10/06  12.1N 122.8E     85       Category 1
00 GMT 12/10/06  12.2N 121.5E    115       Category 3
06 GMT 12/10/06  12.6N 120.3E    115       Category 3
12 GMT 12/10/06  12.9N 119.3E    105       Category 2
18 GMT 12/10/06  13.2N 118.6E    105       Category 2
18 GMT 12/11/06  13.2N 118.6E    105       Category 2
00 GMT 12/11/06  13.3N 118.4E     85       Category 1
06 GMT 12/11/06  13.6N 117.7E     85       Category 1
12 GMT 12/11/06  13.8N 117.0E     90       Category 1
18 GMT 12/11/06  14.1N 116.4E     90       Category 1
18 GMT 12/12/06  14.1N 116.4E     90       Category 1
00 GMT 12/12/06  14.4N 115.7E     85       Category 1
06 GMT 12/12/06  14.8N 114.8E    105       Category 2




Saludos.  ;)

Desconectado deltaforce

  • Tornado F1
  • *
  • Mensajes: 2.186
  • Ofra - Santa Cruz de Tenerife
Re: Tifón UTOR - Categoría 3 - (Pacífico Oeste) Golpeando Filipinas!!!
« Respuesta #34 en: Diciembre 12, 2006, 19:05:12 pm »
 :O* de nuevo tiene ojo  :o
<br /><br /><br /> Eneko/20minutos.es.

Desconectado aso 111

  • el cazador solitario
  • Tornado F1
  • *
  • Mensajes: 1.276
  • térmens (lleida) 200 msnm
    • www.cazatormentas.net
Re: Tifón UTOR - Categoría 3 - (Pacífico Oeste) Golpeando Filipinas!!!
« Respuesta #35 en: Diciembre 12, 2006, 19:08:32 pm »
12 GMT 12/12/06  15.4N 113.9E    105       Category 2
06 GMT 12/12/06  14.8N 114.8E    105       Category 2
12 GMT 12/12/06  15.4N 113.9E    105       Category 2
Cazando tormentas des de 2004

buen equipo, buena gente

ermuleto

  • Visitante
Re: Tifón UTOR - Categoría 3 - (Pacífico Oeste) Golpeando Filipinas!!!
« Respuesta #36 en: Diciembre 13, 2006, 10:23:29 am »
Tifón UTOR - Categoría 2 -





95 kts - 949 mb













00 GMT 12/07/06  8.7N 136.8E     30       Tropical Depression
06 GMT 12/07/06  9.6N 135.4E     30       Tropical Depression
12 GMT 12/07/06  9.7N 134.5E     35       Tropical Depression
06 GMT 12/07/06  9.6N 135.4E     30       Tropical Depression
12 GMT 12/07/06  9.7N 134.5E     35       Tropical Depression
18 GMT 12/07/06  10.0N 133.8E     40       Tropical Storm
18 GMT 12/08/06  10.0N 133.8E     40       Tropical Storm
00 GMT 12/08/06  10.6N 132.0E     40       Tropical Storm
06 GMT 12/08/06  11.1N 130.5E     45       Tropical Storm
12 GMT 12/08/06  11.1N 129.1E     60       Tropical Storm
18 GMT 12/08/06  11.1N 127.3E     70       Tropical Storm
18 GMT 12/09/06  11.1N 127.3E     70       Tropical Storm
00 GMT 12/09/06  10.9N 126.4E     75       Category 1
06 GMT 12/09/06  11.2N 125.4E     75       Category 1
12 GMT 12/09/06  11.6N 124.2E     75       Category 1
18 GMT 12/09/06  12.1N 122.8E     85       Category 1
18 GMT 12/10/06  12.1N 122.8E     85       Category 1
00 GMT 12/10/06  12.2N 121.5E    115       Category 3
06 GMT 12/10/06  12.6N 120.3E    115       Category 3
12 GMT 12/10/06  12.9N 119.3E    105       Category 2
18 GMT 12/10/06  13.2N 118.6E    105       Category 2
18 GMT 12/11/06  13.2N 118.6E    105       Category 2
00 GMT 12/11/06  13.3N 118.4E     85       Category 1
06 GMT 12/11/06  13.6N 117.7E     85       Category 1
12 GMT 12/11/06  13.8N 117.0E     90       Category 1
18 GMT 12/11/06  14.1N 116.4E     90       Category 1
18 GMT 12/12/06  14.1N 116.4E     90       Category 1
00 GMT 12/12/06  14.4N 115.7E     85       Category 1
06 GMT 12/12/06  14.8N 114.8E    105       Category 2
12 GMT 12/12/06  15.4N 113.9E    105       Category 2
06 GMT 12/12/06  14.8N 114.8E    105       Category 2
12 GMT 12/12/06  15.4N 113.9E    105       Category 2
18 GMT 12/12/06  16.0N 113.0E    105       Category 2
18 GMT 12/13/06  16.0N 113.0E    105       Category 2
00 GMT 12/13/06  16.4N 112.7E    110       Category 2
06 GMT 12/13/06  16.8N 112.3E    110       Category 2





Rozando la Categoría 3.


Saludos.  ;)

ermuleto

  • Visitante
Re: Tifón UTOR - Categoría 3 - (Pacífico Oeste) Golpeando Filipinas!!!
« Respuesta #37 en: Diciembre 13, 2006, 19:50:26 pm »
UTOR está perdiendo rápidamente las características tropicales, a causa de que está siendo machacado por la influencia de un A. Cuando tenga los datos actualizados los pondré.


Saludos.

ermuleto

  • Visitante
Re: Tifón UTOR - Categoría 3 - (Pacífico Oeste) Golpeando Filipinas!!!
« Respuesta #38 en: Diciembre 13, 2006, 22:11:36 pm »
Según el Naval Hurricanes, UTOR tendría 65 kts - 976 mb. Viendo la siguiente imagen creo que no es así...






 :DDD :DDD :DDD Pobre UTOR, ha aguantado poco en su encuentro con el A.

Desconectado seal

  • Alhaurin el Grande (Málaga) 300 msnm
  • Piernas de Acero
  • Tornado F5 (Dedo de Dios)
  • *****
  • Mensajes: 20.707
    • Hasta la Cima
Re: Tifón UTOR - Categoría 3 - (Pacífico Oeste) Golpeando Filipinas!!!
« Respuesta #39 en: Diciembre 13, 2006, 22:27:12 pm »
Vaya tela con utor, será el ultimo en meterle mano a Filipinas?  :-X
Alhaurin el Grande (Málaga) 300 msnm.
Dani en TWITTER

Hastalacima

ermuleto

  • Visitante
Re: Tifón UTOR - Categoría 3 - (Pacífico Oeste) Golpeando Filipinas!!!
« Respuesta #40 en: Diciembre 13, 2006, 22:32:38 pm »
Vaya tela con utor, será el ultimo en meterle mano a Filipinas?  :-X


Desgraciadamente creo que no, ya que hay dos Sistemas Tropicales activos cerca de Filipinas. En cualquier momento, puede evolucionar alguno de ellos.


Saludos.  ;)

Desconectado seal

  • Alhaurin el Grande (Málaga) 300 msnm
  • Piernas de Acero
  • Tornado F5 (Dedo de Dios)
  • *****
  • Mensajes: 20.707
    • Hasta la Cima
Re: Tifón UTOR - Categoría 3 - (Pacífico Oeste) Golpeando Filipinas!!!
« Respuesta #41 en: Diciembre 13, 2006, 22:45:21 pm »
Vaya tela con utor, será el ultimo en meterle mano a Filipinas?  :-X


Desgraciadamente creo que no, ya que hay dos Sistemas Tropicales activos cerca de Filipinas. En cualquier momento, puede evolucionar alguno de ellos.


Saludos.  ;)

Pues esta siendo un año nefasto para Filipinas, parecido al año 2005 en Estados unidos.  :-X
Alhaurin el Grande (Málaga) 300 msnm.
Dani en TWITTER

Hastalacima

 



Buscas algun articulo o informacion? usa nuestro buscador